sensor_id;sensor_type;location;lat;lon;timestamp;temperature;humidity
54684;DHT22;40582;53.100;6.686;2022-11-20T00:03:35;1.30;99.90
54684;DHT22;40582;53.100;6.686;2022-11-20T00:06:06;0.90;99.90
54684;DHT22;40582;53.100;6.686;2022-11-20T00:08:32;0.10;99.90
54684;DHT22;40582;53.100;6.686;2022-11-20T00:11:05;0.10;99.90
54684;DHT22;40582;53.100;6.686;2022-11-20T00:13:32;0.20;99.90
54684;DHT22;40582;53.100;6.686;2022-11-20T00:16:03;0.60;99.90
54684;DHT22;40582;53.100;6.686;2022-11-20T00:18:29;0.20;99.90
54684;DHT22;40582;53.100;6.686;2022-11-20T00:21:01;1.40;99.90
54684;DHT22;40582;53.100;6.686;2022-11-20T00:23:27;0.20;99.90
54684;DHT22;40582;53.100;6.686;2022-11-20T00:25:52;1.10;99.90
54684;DHT22;40582;53.100;6.686;2022-11-20T00:28:18;0.80;99.90
54684;DHT22;40582;53.100;6.686;2022-11-20T00:30:43;0.30;99.90
54684;DHT22;40582;53.100;6.686;2022-11-20T00:33:09;0.40;99.90
54684;DHT22;40582;53.100;6.686;2022-11-20T00:35:35;0.30;99.90
54684;DHT22;40582;53.100;6.686;2022-11-20T00:38:00;0.30;99.90
54684;DHT22;40582;53.100;6.686;2022-11-20T00:40:26;0.30;99.90
54684;DHT22;40582;53.100;6.686;2022-11-20T00:42:52;0.40;99.90
54684;DHT22;40582;53.100;6.686;2022-11-20T00:45:17;0.30;99.90
54684;DHT22;40582;53.100;6.686;2022-11-20T00:47:43;0.30;99.90
54684;DHT22;40582;53.100;6.686;2022-11-20T00:50:08;0.30;99.90
54684;DHT22;40582;53.100;6.686;2022-11-20T00:52:34;0.80;99.90
54684;DHT22;40582;53.100;6.686;2022-11-20T00:55:00;1.20;99.90
54684;DHT22;40582;53.100;6.686;2022-11-20T00:57:25;0.40;99.90
54684;DHT22;40582;53.100;6.686;2022-11-20T00:59:51;0.40;99.90
54684;DHT22;40582;53.100;6.686;2022-11-20T01:02:17;0.40;99.90
54684;DHT22;40582;53.100;6.686;2022-11-20T01:04:42;0.40;99.90
54684;DHT22;40582;53.100;6.686;2022-11-20T01:07:08;0.40;99.90
54684;DHT22;40582;53.100;6.686;2022-11-20T01:09:34;1.00;99.90
54684;DHT22;40582;53.100;6.686;2022-11-20T01:11:59;0.40;99.90
54684;DHT22;40582;53.100;6.686;2022-11-20T01:14:25;1.20;99.90
54684;DHT22;40582;53.100;6.686;2022-11-20T01:16:52;0.40;99.90
54684;DHT22;40582;53.100;6.686;2022-11-20T01:19:19;0.40;99.90
54684;DHT22;40582;53.100;6.686;2022-11-20T01:21:48;1.80;99.90
54684;DHT22;40582;53.100;6.686;2022-11-20T01:24:16;0.40;99.90
54684;DHT22;40582;53.100;6.686;2022-11-20T01:26:43;1.60;99.90
54684;DHT22;40582;53.100;6.686;2022-11-20T01:29:14;0.40;99.90
54684;DHT22;40582;53.100;6.686;2022-11-20T01:31:41;0.90;99.90
54684;DHT22;40582;53.100;6.686;2022-11-20T01:34:11;0.80;99.90
54684;DHT22;40582;53.100;6.686;2022-11-20T01:36:38;1.00;99.90
54684;DHT22;40582;53.100;6.686;2022-11-20T01:41:37;0.40;99.90
54684;DHT22;40582;53.100;6.686;2022-11-20T01:44:49;0.40;99.90
54684;DHT22;40582;53.100;6.686;2022-11-20T01:47:39;0.40;99.90
54684;DHT22;40582;53.100;6.686;2022-11-20T01:50:14;0.40;99.90
54684;DHT22;40582;53.100;6.686;2022-11-20T01:52:48;1.50;99.90
54684;DHT22;40582;53.100;6.686;2022-11-20T01:55:21;0.40;99.90
54684;DHT22;40582;53.100;6.686;2022-11-20T01:57:48;0.40;99.90
54684;DHT22;40582;53.100;6.686;2022-11-20T02:00:16;0.40;99.90
54684;DHT22;40582;53.100;6.686;2022-11-20T02:02:46;0.40;99.90
54684;DHT22;40582;53.100;6.686;2022-11-20T02:05:35;0.40;99.90
54684;DHT22;40582;53.100;6.686;2022-11-20T02:08:05;0.40;99.90
54684;DHT22;40582;53.100;6.686;2022-11-20T02:10:32;1.40;99.90
54684;DHT22;40582;53.100;6.686;2022-11-20T02:12:58;0.80;99.90
54684;DHT22;40582;53.100;6.686;2022-11-20T02:15:42;0.70;99.90
54684;DHT22;40582;53.100;6.686;2022-11-20T02:18:10;1.70;99.90
54684;DHT22;40582;53.100;6.686;2022-11-20T02:20:36;1.50;99.90
54684;DHT22;40582;53.100;6.686;2022-11-20T02:23:13;1.00;99.90
54684;DHT22;40582;53.100;6.686;2022-11-20T02:25:42;1.30;99.90
54684;DHT22;40582;53.100;6.686;2022-11-20T02:28:09;0.40;99.90
54684;DHT22;40582;53.100;6.686;2022-11-20T02:30:35;1.60;99.90
54684;DHT22;40582;53.100;6.686;2022-11-20T02:33:01;1.60;99.90
54684;DHT22;40582;53.100;6.686;2022-11-20T02:37:54;1.70;99.90
54684;DHT22;40582;53.100;6.686;2022-11-20T02:40:21;0.40;99.90
54684;DHT22;40582;53.100;6.686;2022-11-20T02:42:47;0.50;99.90
54684;DHT22;40582;53.100;6.686;2022-11-20T02:45:13;0.40;99.90
54684;DHT22;40582;53.100;6.686;2022-11-20T02:47:39;0.50;99.90
54684;DHT22;40582;53.100;6.686;2022-11-20T02:50:05;0.40;99.90
54684;DHT22;40582;53.100;6.686;2022-11-20T02:52:31;0.40;99.90
54684;DHT22;40582;53.100;6.686;2022-11-20T02:54:56;1.10;99.90
54684;DHT22;40582;53.100;6.686;2022-11-20T02:57:22;0.40;99.90
54684;DHT22;40582;53.100;6.686;2022-11-20T02:59:48;1.60;99.90
54684;DHT22;40582;53.100;6.686;2022-11-20T03:02:13;0.40;99.90
54684;DHT22;40582;53.100;6.686;2022-11-20T03:04:39;1.10;99.90
54684;DHT22;40582;53.100;6.686;2022-11-20T03:07:05;0.50;99.90
54684;DHT22;40582;53.100;6.686;2022-11-20T03:09:30;0.70;99.90
54684;DHT22;40582;53.100;6.686;2022-11-20T03:11:56;0.50;99.90
54684;DHT22;40582;53.100;6.686;2022-11-20T03:14:22;0.90;99.90
54684;DHT22;40582;53.100;6.686;2022-11-20T03:16:47;0.50;99.90
54684;DHT22;40582;53.100;6.686;2022-11-20T03:19:13;0.50;99.90
54684;DHT22;40582;53.100;6.686;2022-11-20T03:21:39;1.90;99.90
54684;DHT22;40582;53.100;6.686;2022-11-20T03:24:05;1.50;99.90
54684;DHT22;40582;53.100;6.686;2022-11-20T03:26:31;0.50;99.90
54684;DHT22;40582;53.100;6.686;2022-11-20T03:28:59;1.40;99.90
54684;DHT22;40582;53.100;6.686;2022-11-20T03:31:28;1.20;99.90
54684;DHT22;40582;53.100;6.686;2022-11-20T03:33:55;0.50;99.90
54684;DHT22;40582;53.100;6.686;2022-11-20T03:36:21;0.50;99.90
54684;DHT22;40582;53.100;6.686;2022-11-20T03:38:47;1.10;99.90
54684;DHT22;40582;53.100;6.686;2022-11-20T03:41:17;2.00;99.90
54684;DHT22;40582;53.100;6.686;2022-11-20T03:43:48;0.90;99.90
54684;DHT22;40582;53.100;6.686;2022-11-20T03:46:14;0.60;99.90
54684;DHT22;40582;53.100;6.686;2022-11-20T03:48:40;0.90;99.90
54684;DHT22;40582;53.100;6.686;2022-11-20T03:53:43;0.60;99.90
54684;DHT22;40582;53.100;6.686;2022-11-20T03:56:10;0.60;99.90
54684;DHT22;40582;53.100;6.686;2022-11-20T03:58:37;0.60;99.90
54684;DHT22;40582;53.100;6.686;2022-11-20T04:03:34;0.60;99.90
54684;DHT22;40582;53.100;6.686;2022-11-20T04:06:18;0.60;99.90
54684;DHT22;40582;53.100;6.686;2022-11-20T04:08:44;0.60;99.90
54684;DHT22;40582;53.100;6.686;2022-11-20T04:13:40;1.20;99.90
54684;DHT22;40582;53.100;6.686;2022-11-20T04:16:07;0.60;99.90
54684;DHT22;40582;53.100;6.686;2022-11-20T04:18:33;0.60;99.90
54684;DHT22;40582;53.100;6.686;2022-11-20T04:20:59;0.60;99.90
54684;DHT22;40582;53.100;6.686;2022-11-20T04:23:25;1.70;99.90
54684;DHT22;40582;53.100;6.686;2022-11-20T04:25:51;0.60;99.90
54684;DHT22;40582;53.100;6.686;2022-11-20T04:28:17;0.60;99.90
54684;DHT22;40582;53.100;6.686;2022-11-20T04:30:43;0.60;99.90
54684;DHT22;40582;53.100;6.686;2022-11-20T04:33:09;1.70;99.90
54684;DHT22;40582;53.100;6.686;2022-11-20T04:35:35;1.80;99.90
54684;DHT22;40582;53.100;6.686;2022-11-20T04:38:01;1.80;99.90
54684;DHT22;40582;53.100;6.686;2022-11-20T04:40:28;0.70;99.90
54684;DHT22;40582;53.100;6.686;2022-11-20T04:42:54;0.60;99.90
54684;DHT22;40582;53.100;6.686;2022-11-20T04:45:20;0.70;99.90
54684;DHT22;40582;53.100;6.686;2022-11-20T04:47:46;1.10;99.90
54684;DHT22;40582;53.100;6.686;2022-11-20T04:50:11;0.60;99.90
54684;DHT22;40582;53.100;6.686;2022-11-20T04:52:37;0.70;99.90
54684;DHT22;40582;53.100;6.686;2022-11-20T04:55:03;0.70;99.90
54684;DHT22;40582;53.100;6.686;2022-11-20T04:57:29;0.70;99.90
54684;DHT22;40582;53.100;6.686;2022-11-20T04:59:54;0.70;99.90
54684;DHT22;40582;53.100;6.686;2022-11-20T05:02:20;1.60;99.90
54684;DHT22;40582;53.100;6.686;2022-11-20T05:04:46;0.70;99.90
54684;DHT22;40582;53.100;6.686;2022-11-20T05:07:11;1.90;99.90
54684;DHT22;40582;53.100;6.686;2022-11-20T05:09:37;1.20;99.90
54684;DHT22;40582;53.100;6.686;2022-11-20T05:12:03;0.90;99.90
54684;DHT22;40582;53.100;6.686;2022-11-20T05:14:29;0.70;99.90
54684;DHT22;40582;53.100;6.686;2022-11-20T05:16:54;0.70;99.90
54684;DHT22;40582;53.100;6.686;2022-11-20T05:19:20;0.70;99.90
54684;DHT22;40582;53.100;6.686;2022-11-20T05:21:45;1.40;99.90
54684;DHT22;40582;53.100;6.686;2022-11-20T05:24:11;1.60;99.90
54684;DHT22;40582;53.100;6.686;2022-11-20T05:26:37;0.70;99.90
54684;DHT22;40582;53.100;6.686;2022-11-20T05:29:03;0.70;99.90
54684;DHT22;40582;53.100;6.686;2022-11-20T05:31:29;0.70;99.90
54684;DHT22;40582;53.100;6.686;2022-11-20T05:33:56;0.70;99.90
54684;DHT22;40582;53.100;6.686;2022-11-20T05:36:22;0.90;99.90
54684;DHT22;40582;53.100;6.686;2022-11-20T05:38:48;0.80;99.90
54684;DHT22;40582;53.100;6.686;2022-11-20T05:41:15;0.80;99.90
54684;DHT22;40582;53.100;6.686;2022-11-20T05:43:43;0.70;99.90
54684;DHT22;40582;53.100;6.686;2022-11-20T05:46:11;0.70;99.90
54684;DHT22;40582;53.100;6.686;2022-11-20T05:48:39;0.70;99.90
54684;DHT22;40582;53.100;6.686;2022-11-20T05:51:07;0.70;99.90
54684;DHT22;40582;53.100;6.686;2022-11-20T05:53:34;0.70;99.90
54684;DHT22;40582;53.100;6.686;2022-11-20T05:56:18;0.70;99.90
54684;DHT22;40582;53.100;6.686;2022-11-20T05:58:44;0.70;99.90
54684;DHT22;40582;53.100;6.686;2022-11-20T06:01:19;1.40;99.90
54684;DHT22;40582;53.100;6.686;2022-11-20T06:03:45;0.70;99.90
54684;DHT22;40582;53.100;6.686;2022-11-20T06:06:13;2.00;99.90
54684;DHT22;40582;53.100;6.686;2022-11-20T06:08:39;1.40;99.90
54684;DHT22;40582;53.100;6.686;2022-11-20T06:11:10;0.80;99.90
54684;DHT22;40582;53.100;6.686;2022-11-20T06:13:36;0.70;99.90
54684;DHT22;40582;53.100;6.686;2022-11-20T06:16:02;1.20;99.90
54684;DHT22;40582;53.100;6.686;2022-11-20T06:18:29;0.80;99.90
54684;DHT22;40582;53.100;6.686;2022-11-20T06:23:28;1.40;99.90
54684;DHT22;40582;53.100;6.686;2022-11-20T06:25:54;0.90;99.90
54684;DHT22;40582;53.100;6.686;2022-11-20T06:28:20;1.30;99.90
54684;DHT22;40582;53.100;6.686;2022-11-20T06:30:46;0.80;99.90
54684;DHT22;40582;53.100;6.686;2022-11-20T06:33:12;1.50;99.90
54684;DHT22;40582;53.100;6.686;2022-11-20T06:35:37;0.80;99.90
54684;DHT22;40582;53.100;6.686;2022-11-20T06:38:03;0.80;99.90
54684;DHT22;40582;53.100;6.686;2022-11-20T06:40:29;0.80;99.90
54684;DHT22;40582;53.100;6.686;2022-11-20T06:42:54;1.00;99.90
54684;DHT22;40582;53.100;6.686;2022-11-20T06:45:21;1.00;99.90
54684;DHT22;40582;53.100;6.686;2022-11-20T06:47:46;0.80;99.90
54684;DHT22;40582;53.100;6.686;2022-11-20T06:50:13;0.70;99.90
54684;DHT22;40582;53.100;6.686;2022-11-20T06:52:38;0.80;99.90
54684;DHT22;40582;53.100;6.686;2022-11-20T06:55:04;1.80;99.90
54684;DHT22;40582;53.100;6.686;2022-11-20T06:57:30;0.80;99.90
54684;DHT22;40582;53.100;6.686;2022-11-20T06:59:55;0.80;99.90
54684;DHT22;40582;53.100;6.686;2022-11-20T07:02:21;0.80;99.90
54684;DHT22;40582;53.100;6.686;2022-11-20T07:04:47;0.80;99.90
54684;DHT22;40582;53.100;6.686;2022-11-20T07:07:12;0.80;99.90
54684;DHT22;40582;53.100;6.686;2022-11-20T07:09:38;0.80;99.90
54684;DHT22;40582;53.100;6.686;2022-11-20T07:12:04;0.80;99.90
54684;DHT22;40582;53.100;6.686;2022-11-20T07:14:29;0.80;99.90
54684;DHT22;40582;53.100;6.686;2022-11-20T07:16:55;1.60;99.90
54684;DHT22;40582;53.100;6.686;2022-11-20T07:19:21;0.80;99.90
54684;DHT22;40582;53.100;6.686;2022-11-20T07:21:46;1.40;99.90
54684;DHT22;40582;53.100;6.686;2022-11-20T07:24:12;0.90;99.90
54684;DHT22;40582;53.100;6.686;2022-11-20T07:26:37;1.30;99.90
54684;DHT22;40582;53.100;6.686;2022-11-20T07:29:03;1.10;99.90
54684;DHT22;40582;53.100;6.686;2022-11-20T07:31:29;0.90;99.90
54684;DHT22;40582;53.100;6.686;2022-11-20T07:33:54;1.60;99.90
54684;DHT22;40582;53.100;6.686;2022-11-20T07:36:21;1.50;99.90
54684;DHT22;40582;53.100;6.686;2022-11-20T07:38:46;1.00;99.90
54684;DHT22;40582;53.100;6.686;2022-11-20T07:41:12;1.20;99.90
54684;DHT22;40582;53.100;6.686;2022-11-20T07:43:38;1.00;99.90
54684;DHT22;40582;53.100;6.686;2022-11-20T07:46:03;0.90;99.90
54684;DHT22;40582;53.100;6.686;2022-11-20T07:48:29;1.00;99.90
54684;DHT22;40582;53.100;6.686;2022-11-20T07:50:56;1.00;99.90
54684;DHT22;40582;53.100;6.686;2022-11-20T07:53:23;1.00;99.90
54684;DHT22;40582;53.100;6.686;2022-11-20T07:55:49;1.00;99.90
54684;DHT22;40582;53.100;6.686;2022-11-20T07:58:18;1.50;99.90
54684;DHT22;40582;53.100;6.686;2022-11-20T08:00:44;1.30;99.90
54684;DHT22;40582;53.100;6.686;2022-11-20T08:03:09;1.80;99.90
54684;DHT22;40582;53.100;6.686;2022-11-20T08:05:35;1.10;99.90
54684;DHT22;40582;53.100;6.686;2022-11-20T08:08:01;1.20;99.90
54684;DHT22;40582;53.100;6.686;2022-11-20T08:10:27;1.10;99.90
54684;DHT22;40582;53.100;6.686;2022-11-20T08:12:53;1.90;99.90
54684;DHT22;40582;53.100;6.686;2022-11-20T08:15:39;1.90;99.90
54684;DHT22;40582;53.100;6.686;2022-11-20T08:18:09;2.00;99.90
54684;DHT22;40582;53.100;6.686;2022-11-20T08:20:36;1.30;99.90
54684;DHT22;40582;53.100;6.686;2022-11-20T08:23:04;1.30;99.90
54684;DHT22;40582;53.100;6.686;2022-11-20T08:25:32;1.70;99.90
54684;DHT22;40582;53.100;6.686;2022-11-20T08:28:00;2.20;99.90
54684;DHT22;40582;53.100;6.686;2022-11-20T08:30:27;1.70;99.90
54684;DHT22;40582;53.100;6.686;2022-11-20T08:32:53;1.30;99.90
54684;DHT22;40582;53.100;6.686;2022-11-20T08:35:22;1.70;99.90
54684;DHT22;40582;53.100;6.686;2022-11-20T08:37:49;2.20;99.90
54684;DHT22;40582;53.100;6.686;2022-11-20T08:40:15;2.40;99.90
54684;DHT22;40582;53.100;6.686;2022-11-20T08:42:48;1.30;99.90
54684;DHT22;40582;53.100;6.686;2022-11-20T08:45:14;2.90;99.90
54684;DHT22;40582;53.100;6.686;2022-11-20T08:47:40;1.30;99.90
54684;DHT22;40582;53.100;6.686;2022-11-20T08:50:06;1.80;99.90
54684;DHT22;40582;53.100;6.686;2022-11-20T08:52:32;1.40;99.90
54684;DHT22;40582;53.100;6.686;2022-11-20T08:54:58;1.40;99.90
54684;DHT22;40582;53.100;6.686;2022-11-20T08:57:24;2.60;99.90
54684;DHT22;40582;53.100;6.686;2022-11-20T08:59:49;1.70;99.90
54684;DHT22;40582;53.100;6.686;2022-11-20T09:02:15;1.50;99.90
54684;DHT22;40582;53.100;6.686;2022-11-20T09:04:40;1.60;99.90
54684;DHT22;40582;53.100;6.686;2022-11-20T09:07:06;1.90;99.90
54684;DHT22;40582;53.100;6.686;2022-11-20T09:09:32;2.30;99.90
54684;DHT22;40582;53.100;6.686;2022-11-20T09:11:58;1.50;99.90
54684;DHT22;40582;53.100;6.686;2022-11-20T09:14:24;1.60;99.90
54684;DHT22;40582;53.100;6.686;2022-11-20T09:16:55;1.60;99.90
54684;DHT22;40582;53.100;6.686;2022-11-20T09:19:20;1.60;99.90
54684;DHT22;40582;53.100;6.686;2022-11-20T09:21:46;2.40;99.90
54684;DHT22;40582;53.100;6.686;2022-11-20T09:24:12;1.70;99.90
54684;DHT22;40582;53.100;6.686;2022-11-20T09:26:37;2.20;99.90
54684;DHT22;40582;53.100;6.686;2022-11-20T09:29:03;1.80;99.90
54684;DHT22;40582;53.100;6.686;2022-11-20T09:31:29;1.80;99.90
54684;DHT22;40582;53.100;6.686;2022-11-20T09:33:54;1.80;99.90
54684;DHT22;40582;53.100;6.686;2022-11-20T09:36:20;1.90;99.90
54684;DHT22;40582;53.100;6.686;2022-11-20T09:38:46;1.90;99.90
54684;DHT22;40582;53.100;6.686;2022-11-20T09:47:43;2.00;99.90
54684;DHT22;40582;53.100;6.686;2022-11-20T09:53:09;2.00;99.90
54684;DHT22;40582;53.100;6.686;2022-11-20T09:55:37;2.10;99.90
54684;DHT22;40582;53.100;6.686;2022-11-20T09:58:06;2.10;99.90
54684;DHT22;40582;53.100;6.686;2022-11-20T10:00:35;2.60;99.90
54684;DHT22;40582;53.100;6.686;2022-11-20T10:03:24;2.20;99.90
54684;DHT22;40582;53.100;6.686;2022-11-20T10:05:54;2.10;99.90
54684;DHT22;40582;53.100;6.686;2022-11-20T10:08:28;2.20;99.90
54684;DHT22;40582;53.100;6.686;2022-11-20T10:14:06;2.30;99.90
54684;DHT22;40582;53.100;6.686;2022-11-20T10:24:55;2.40;99.90
54684;DHT22;40582;53.100;6.686;2022-11-20T10:32:38;2.60;99.90
54684;DHT22;40582;53.100;6.686;2022-11-20T10:35:09;2.60;99.90
54684;DHT22;40582;53.100;6.686;2022-11-20T10:37:44;2.60;99.90
54684;DHT22;40582;53.100;6.686;2022-11-20T10:40:18;2.60;99.90
54684;DHT22;40582;53.100;6.686;2022-11-20T10:42:53;2.60;99.90
54684;DHT22;40582;53.100;6.686;2022-11-20T10:48:14;2.70;99.90
54684;DHT22;40582;53.100;6.686;2022-11-20T10:56:41;2.80;99.90
54684;DHT22;40582;53.100;6.686;2022-11-20T10:59:29;2.80;99.90
54684;DHT22;40582;53.100;6.686;2022-11-20T11:01:56;2.90;99.90
54684;DHT22;40582;53.100;6.686;2022-11-20T11:04:40;2.80;99.90
54684;DHT22;40582;53.100;6.686;2022-11-20T11:07:21;2.80;99.90
54684;DHT22;40582;53.100;6.686;2022-11-20T11:09:50;2.90;99.90
54684;DHT22;40582;53.100;6.686;2022-11-20T11:12:17;2.90;99.90
54684;DHT22;40582;53.100;6.686;2022-11-20T11:14:46;2.90;99.90
54684;DHT22;40582;53.100;6.686;2022-11-20T11:22:29;3.50;99.90
54684;DHT22;40582;53.100;6.686;2022-11-20T11:24:55;2.90;99.90
54684;DHT22;40582;53.100;6.686;2022-11-20T11:27:21;3.10;99.90
54684;DHT22;40582;53.100;6.686;2022-11-20T11:29:47;3.10;99.90
54684;DHT22;40582;53.100;6.686;2022-11-20T11:32:19;2.70;99.90
54684;DHT22;40582;53.100;6.686;2022-11-20T11:35:00;2.90;99.90
54684;DHT22;40582;53.100;6.686;2022-11-20T11:37:35;2.80;99.90
54684;DHT22;40582;53.100;6.686;2022-11-20T11:40:03;2.60;99.90
54684;DHT22;40582;53.100;6.686;2022-11-20T11:42:30;2.60;99.90
54684;DHT22;40582;53.100;6.686;2022-11-20T11:44:58;2.70;99.90
54684;DHT22;40582;53.100;6.686;2022-11-20T11:50:23;2.70;99.90
54684;DHT22;40582;53.100;6.686;2022-11-20T11:53:05;2.60;99.90
54684;DHT22;40582;53.100;6.686;2022-11-20T11:55:49;2.60;99.90
54684;DHT22;40582;53.100;6.686;2022-11-20T12:04:27;2.50;99.90
54684;DHT22;40582;53.100;6.686;2022-11-20T12:06:50;2.40;99.90
54684;DHT22;40582;53.100;6.686;2022-11-20T12:09:18;3.60;99.90
54684;DHT22;40582;53.100;6.686;2022-11-20T12:11:52;2.30;99.90
54684;DHT22;40582;53.100;6.686;2022-11-20T12:14:34;2.40;99.90
54684;DHT22;40582;53.100;6.686;2022-11-20T12:17:01;2.40;99.90
54684;DHT22;40582;53.100;6.686;2022-11-20T12:19:33;2.50;99.90
54684;DHT22;40582;53.100;6.686;2022-11-20T12:22:30;2.70;99.90
54684;DHT22;40582;53.100;6.686;2022-11-20T12:24:58;3.50;99.90
54684;DHT22;40582;53.100;6.686;2022-11-20T12:30:22;3.20;99.90
54684;DHT22;40582;53.100;6.686;2022-11-20T12:56:05;3.90;99.90
54684;DHT22;40582;53.100;6.686;2022-11-20T12:59:09;3.70;99.90
54684;DHT22;40582;53.100;6.686;2022-11-20T13:04:45;3.50;99.90
54684;DHT22;40582;53.100;6.686;2022-11-20T13:07:13;3.40;99.90
54684;DHT22;40582;53.100;6.686;2022-11-20T13:09:48;4.50;99.90
54684;DHT22;40582;53.100;6.686;2022-11-20T13:15:15;3.30;99.90
54684;DHT22;40582;53.100;6.686;2022-11-20T13:17:51;3.40;99.90
54684;DHT22;40582;53.100;6.686;2022-11-20T13:20:19;4.30;99.90
54684;DHT22;40582;53.100;6.686;2022-11-20T13:22:50;3.40;99.90
54684;DHT22;40582;53.100;6.686;2022-11-20T13:25:28;3.40;99.90
54684;DHT22;40582;53.100;6.686;2022-11-20T13:27:57;3.40;99.90
54684;DHT22;40582;53.100;6.686;2022-11-20T13:30:25;3.40;99.90
54684;DHT22;40582;53.100;6.686;2022-11-20T13:32:54;3.30;99.90
54684;DHT22;40582;53.100;6.686;2022-11-20T13:35:29;3.40;99.90
54684;DHT22;40582;53.100;6.686;2022-11-20T13:40:32;3.40;99.90
54684;DHT22;40582;53.100;6.686;2022-11-20T13:43:57;3.40;99.90
54684;DHT22;40582;53.100;6.686;2022-11-20T13:46:02;3.40;99.90
54684;DHT22;40582;53.100;6.686;2022-11-20T13:48:48;3.40;99.90
54684;DHT22;40582;53.100;6.686;2022-11-20T14:01:55;3.20;99.90
54684;DHT22;40582;53.100;6.686;2022-11-20T14:04:29;3.50;99.90
54684;DHT22;40582;53.100;6.686;2022-11-20T14:06:56;3.50;99.90
54684;DHT22;40582;53.100;6.686;2022-11-20T14:09:33;3.30;99.90
54684;DHT22;40582;53.100;6.686;2022-11-20T14:11:59;3.10;99.90
54684;DHT22;40582;53.100;6.686;2022-11-20T14:14:29;3.10;99.90
54684;DHT22;40582;53.100;6.686;2022-11-20T14:17:28;3.90;99.90
54684;DHT22;40582;53.100;6.686;2022-11-20T14:20:04;3.00;99.90
54684;DHT22;40582;53.100;6.686;2022-11-20T14:22:30;2.90;99.90
54684;DHT22;40582;53.100;6.686;2022-11-20T14:27:27;2.80;99.90
54684;DHT22;40582;53.100;6.686;2022-11-20T14:29:53;2.80;99.90
54684;DHT22;40582;53.100;6.686;2022-11-20T14:32:22;2.70;99.90
54684;DHT22;40582;53.100;6.686;2022-11-20T14:34:50;3.10;99.90
54684;DHT22;40582;53.100;6.686;2022-11-20T14:37:26;2.60;99.90
54684;DHT22;40582;53.100;6.686;2022-11-20T14:39:55;2.60;99.90
54684;DHT22;40582;53.100;6.686;2022-11-20T14:42:23;2.60;99.90
54684;DHT22;40582;53.100;6.686;2022-11-20T14:44:50;2.50;99.90
54684;DHT22;40582;53.100;6.686;2022-11-20T14:47:21;2.50;99.90
54684;DHT22;40582;53.100;6.686;2022-11-20T14:49:49;2.50;99.90
54684;DHT22;40582;53.100;6.686;2022-11-20T14:52:21;2.40;99.90
54684;DHT22;40582;53.100;6.686;2022-11-20T14:54:57;2.40;99.90
54684;DHT22;40582;53.100;6.686;2022-11-20T14:57:28;2.30;99.90
54684;DHT22;40582;53.100;6.686;2022-11-20T15:02:34;2.10;99.90
54684;DHT22;40582;53.100;6.686;2022-11-20T15:05:01;2.10;99.90
54684;DHT22;40582;53.100;6.686;2022-11-20T15:07:38;2.00;99.90
54684;DHT22;40582;53.100;6.686;2022-11-20T15:10:08;2.00;99.90
54684;DHT22;40582;53.100;6.686;2022-11-20T15:12:41;2.00;99.90
54684;DHT22;40582;53.100;6.686;2022-11-20T15:15:12;2.40;99.90
54684;DHT22;40582;53.100;6.686;2022-11-20T15:17:40;1.90;99.90
54684;DHT22;40582;53.100;6.686;2022-11-20T15:20:13;1.80;99.90
54684;DHT22;40582;53.100;6.686;2022-11-20T15:22:39;1.80;99.90
54684;DHT22;40582;53.100;6.686;2022-11-20T15:25:15;1.70;99.90
54684;DHT22;40582;53.100;6.686;2022-11-20T15:27:42;1.60;99.90
54684;DHT22;40582;53.100;6.686;2022-11-20T15:30:16;2.10;99.90
54684;DHT22;40582;53.100;6.686;2022-11-20T15:32:43;1.50;99.90
54684;DHT22;40582;53.100;6.686;2022-11-20T15:35:09;1.60;99.90
54684;DHT22;40582;53.100;6.686;2022-11-20T15:37:36;1.50;99.90
54684;DHT22;40582;53.100;6.686;2022-11-20T15:40:02;2.00;99.90
54684;DHT22;40582;53.100;6.686;2022-11-20T15:42:28;1.50;99.90
54684;DHT22;40582;53.100;6.686;2022-11-20T15:44:54;2.80;99.90
54684;DHT22;40582;53.100;6.686;2022-11-20T15:47:34;1.70;99.90
54684;DHT22;40582;53.100;6.686;2022-11-20T15:50:00;1.50;99.90
54684;DHT22;40582;53.100;6.686;2022-11-20T15:52:26;1.50;99.90
54684;DHT22;40582;53.100;6.686;2022-11-20T15:54:52;2.20;99.90
54684;DHT22;40582;53.100;6.686;2022-11-20T15:57:17;1.50;99.90
54684;DHT22;40582;53.100;6.686;2022-11-20T15:59:43;1.50;99.90
54684;DHT22;40582;53.100;6.686;2022-11-20T16:02:11;2.10;99.90
54684;DHT22;40582;53.100;6.686;2022-11-20T16:04:37;1.90;99.90
54684;DHT22;40582;53.100;6.686;2022-11-20T16:07:03;1.50;99.90
54684;DHT22;40582;53.100;6.686;2022-11-20T16:09:28;1.40;99.90
54684;DHT22;40582;53.100;6.686;2022-11-20T16:11:54;1.50;99.90
54684;DHT22;40582;53.100;6.686;2022-11-20T16:14:19;1.60;99.90
54684;DHT22;40582;53.100;6.686;2022-11-20T16:17:04;1.50;99.90
54684;DHT22;40582;53.100;6.686;2022-11-20T16:19:30;1.50;99.90
54684;DHT22;40582;53.100;6.686;2022-11-20T16:21:57;1.50;99.90
54684;DHT22;40582;53.100;6.686;2022-11-20T16:24:23;2.30;99.90
54684;DHT22;40582;53.100;6.686;2022-11-20T16:26:49;1.50;99.90
54684;DHT22;40582;53.100;6.686;2022-11-20T16:29:14;1.50;99.90
54684;DHT22;40582;53.100;6.686;2022-11-20T16:31:40;1.60;99.90
54684;DHT22;40582;53.100;6.686;2022-11-20T16:34:07;1.50;99.90
54684;DHT22;40582;53.100;6.686;2022-11-20T16:36:33;1.50;99.90
54684;DHT22;40582;53.100;6.686;2022-11-20T16:39:00;1.50;99.90
54684;DHT22;40582;53.100;6.686;2022-11-20T16:41:32;2.20;99.90
54684;DHT22;40582;53.100;6.686;2022-11-20T16:43:59;1.50;99.90
54684;DHT22;40582;53.100;6.686;2022-11-20T16:46:30;1.50;99.90
54684;DHT22;40582;53.100;6.686;2022-11-20T16:49:01;1.50;99.90
54684;DHT22;40582;53.100;6.686;2022-11-20T16:51:28;1.50;99.90
54684;DHT22;40582;53.100;6.686;2022-11-20T16:53:55;1.50;99.90
54684;DHT22;40582;53.100;6.686;2022-11-20T16:56:23;2.10;99.90
54684;DHT22;40582;53.100;6.686;2022-11-20T16:58:49;1.50;99.90
54684;DHT22;40582;53.100;6.686;2022-11-20T17:01:18;1.70;99.90
54684;DHT22;40582;53.100;6.686;2022-11-20T17:03:46;1.50;99.90
54684;DHT22;40582;53.100;6.686;2022-11-20T17:06:19;1.50;99.90
54684;DHT22;40582;53.100;6.686;2022-11-20T17:08:46;1.50;99.90
54684;DHT22;40582;53.100;6.686;2022-11-20T17:11:14;1.50;99.90
54684;DHT22;40582;53.100;6.686;2022-11-20T17:13:40;1.90;99.90
54684;DHT22;40582;53.100;6.686;2022-11-20T17:16:11;1.50;99.90
54684;DHT22;40582;53.100;6.686;2022-11-20T17:18:37;1.90;99.90
54684;DHT22;40582;53.100;6.686;2022-11-20T17:21:03;1.60;99.90
54684;DHT22;40582;53.100;6.686;2022-11-20T17:23:38;1.60;99.90
54684;DHT22;40582;53.100;6.686;2022-11-20T17:26:06;1.80;99.90
54684;DHT22;40582;53.100;6.686;2022-11-20T17:28:32;1.50;99.90
54684;DHT22;40582;53.100;6.686;2022-11-20T17:31:03;1.50;99.90
54684;DHT22;40582;53.100;6.686;2022-11-20T17:33:29;1.50;99.90
54684;DHT22;40582;53.100;6.686;2022-11-20T17:35:55;1.50;99.90
54684;DHT22;40582;53.100;6.686;2022-11-20T17:38:21;1.80;99.90
54684;DHT22;40582;53.100;6.686;2022-11-20T17:40:47;1.90;99.90
54684;DHT22;40582;53.100;6.686;2022-11-20T17:43:13;2.30;99.90
54684;DHT22;40582;53.100;6.686;2022-11-20T17:45:38;1.50;99.90
54684;DHT22;40582;53.100;6.686;2022-11-20T17:48:04;1.40;99.90
54684;DHT22;40582;53.100;6.686;2022-11-20T17:50:30;1.40;99.90